sensor_id;sensor_type;location;lat;lon;timestamp;P1;durP1;ratioP1;P2;durP2;ratioP2
27428;SDS011;14881;48.092;11.574;2024-03-08T00:00:14;54.83;;;34.33;;
27428;SDS011;14881;48.092;11.574;2024-03-08T00:02:46;55.15;;;33.75;;
27428;SDS011;14881;48.092;11.574;2024-03-08T00:05:17;53.05;;;33.55;;
27428;SDS011;14881;48.092;11.574;2024-03-08T00:07:45;53.85;;;33.20;;
27428;SDS011;14881;48.092;11.574;2024-03-08T00:10:13;54.33;;;33.42;;
27428;SDS011;14881;48.092;11.574;2024-03-08T00:12:42;53.55;;;33.47;;
27428;SDS011;14881;48.092;11.574;2024-03-08T00:15:12;55.55;;;34.20;;
27428;SDS011;14881;48.092;11.574;2024-03-08T00:17:44;54.80;;;34.17;;
27428;SDS011;14881;48.092;11.574;2024-03-08T00:20:13;51.92;;;32.30;;
27428;SDS011;14881;48.092;11.574;2024-03-08T00:22:41;54.85;;;33.03;;
27428;SDS011;14881;48.092;11.574;2024-03-08T00:25:10;50.60;;;32.83;;
27428;SDS011;14881;48.092;11.574;2024-03-08T00:27:38;54.08;;;32.75;;
27428;SDS011;14881;48.092;11.574;2024-03-08T00:30:06;57.60;;;34.38;;
27428;SDS011;14881;48.092;11.574;2024-03-08T00:32:36;57.80;;;34.92;;
27428;SDS011;14881;48.092;11.574;2024-03-08T00:35:04;55.47;;;33.78;;
27428;SDS011;14881;48.092;11.574;2024-03-08T00:37:34;53.90;;;34.78;;
27428;SDS011;14881;48.092;11.574;2024-03-08T00:40:02;56.13;;;33.20;;
27428;SDS011;14881;48.092;11.574;2024-03-08T00:42:30;51.13;;;32.42;;
27428;SDS011;14881;48.092;11.574;2024-03-08T00:44:59;51.05;;;31.85;;
27428;SDS011;14881;48.092;11.574;2024-03-08T00:47:27;49.33;;;31.75;;
27428;SDS011;14881;48.092;11.574;2024-03-08T00:49:57;49.00;;;31.55;;
27428;SDS011;14881;48.092;11.574;2024-03-08T00:52:24;49.20;;;31.67;;
27428;SDS011;14881;48.092;11.574;2024-03-08T00:54:52;50.47;;;31.63;;
27428;SDS011;14881;48.092;11.574;2024-03-08T00:57:21;50.58;;;31.50;;
27428;SDS011;14881;48.092;11.574;2024-03-08T00:59:49;50.25;;;31.85;;
27428;SDS011;14881;48.092;11.574;2024-03-08T01:02:17;52.00;;;31.95;;
27428;SDS011;14881;48.092;11.574;2024-03-08T01:04:45;48.03;;;29.90;;
27428;SDS011;14881;48.092;11.574;2024-03-08T01:07:15;47.35;;;31.65;;
27428;SDS011;14881;48.092;11.574;2024-03-08T01:09:43;46.92;;;30.10;;
27428;SDS011;14881;48.092;11.574;2024-03-08T01:12:11;46.88;;;30.80;;
27428;SDS011;14881;48.092;11.574;2024-03-08T01:14:39;48.35;;;30.88;;
27428;SDS011;14881;48.092;11.574;2024-03-08T01:17:07;46.25;;;28.95;;
27428;SDS011;14881;48.092;11.574;2024-03-08T01:19:35;48.38;;;30.75;;
27428;SDS011;14881;48.092;11.574;2024-03-08T01:22:03;48.30;;;31.40;;
27428;SDS011;14881;48.092;11.574;2024-03-08T01:24:33;45.80;;;29.05;;
27428;SDS011;14881;48.092;11.574;2024-03-08T01:27:01;50.33;;;31.77;;
27428;SDS011;14881;48.092;11.574;2024-03-08T01:29:29;47.92;;;30.70;;
27428;SDS011;14881;48.092;11.574;2024-03-08T01:31:57;53.75;;;32.63;;
27428;SDS011;14881;48.092;11.574;2024-03-08T01:34:27;47.78;;;30.95;;
27428;SDS011;14881;48.092;11.574;2024-03-08T01:36:56;52.33;;;32.40;;
27428;SDS011;14881;48.092;11.574;2024-03-08T01:39:24;50.10;;;31.95;;
27428;SDS011;14881;48.092;11.574;2024-03-08T01:41:54;48.88;;;30.65;;
27428;SDS011;14881;48.092;11.574;2024-03-08T01:44:22;44.50;;;29.33;;
27428;SDS011;14881;48.092;11.574;2024-03-08T01:46:50;52.22;;;31.95;;
27428;SDS011;14881;48.092;11.574;2024-03-08T01:49:20;48.90;;;31.58;;
27428;SDS011;14881;48.092;11.574;2024-03-08T01:51:50;46.80;;;30.95;;
27428;SDS011;14881;48.092;11.574;2024-03-08T01:54:18;48.72;;;31.45;;
27428;SDS011;14881;48.092;11.574;2024-03-08T01:56:49;52.38;;;32.70;;
27428;SDS011;14881;48.092;11.574;2024-03-08T01:59:21;49.05;;;31.77;;
27428;SDS011;14881;48.092;11.574;2024-03-08T02:01:49;49.17;;;31.48;;
27428;SDS011;14881;48.092;11.574;2024-03-08T02:04:18;50.75;;;31.80;;
27428;SDS011;14881;48.092;11.574;2024-03-08T02:06:47;50.58;;;31.45;;
27428;SDS011;14881;48.092;11.574;2024-03-08T02:09:15;51.42;;;31.00;;
27428;SDS011;14881;48.092;11.574;2024-03-08T02:11:43;48.65;;;30.45;;
27428;SDS011;14881;48.092;11.574;2024-03-08T02:14:12;49.28;;;32.67;;
27428;SDS011;14881;48.092;11.574;2024-03-08T02:16:41;45.78;;;30.98;;
27428;SDS011;14881;48.092;11.574;2024-03-08T02:19:09;47.22;;;31.25;;
27428;SDS011;14881;48.092;11.574;2024-03-08T02:21:38;50.78;;;32.20;;
27428;SDS011;14881;48.092;11.574;2024-03-08T02:24:06;54.13;;;34.33;;
27428;SDS011;14881;48.092;11.574;2024-03-08T02:26:34;49.53;;;31.23;;
27428;SDS011;14881;48.092;11.574;2024-03-08T02:29:03;52.58;;;32.53;;
27428;SDS011;14881;48.092;11.574;2024-03-08T02:31:31;51.95;;;32.90;;
27428;SDS011;14881;48.092;11.574;2024-03-08T02:33:59;51.65;;;32.35;;
27428;SDS011;14881;48.092;11.574;2024-03-08T02:36:27;48.55;;;32.00;;
27428;SDS011;14881;48.092;11.574;2024-03-08T02:38:56;51.05;;;32.72;;
27428;SDS011;14881;48.092;11.574;2024-03-08T02:41:24;51.80;;;34.13;;
27428;SDS011;14881;48.092;11.574;2024-03-08T02:43:52;51.30;;;33.67;;
27428;SDS011;14881;48.092;11.574;2024-03-08T02:46:21;48.78;;;32.67;;
27428;SDS011;14881;48.092;11.574;2024-03-08T02:48:49;48.42;;;33.05;;
27428;SDS011;14881;48.092;11.574;2024-03-08T02:51:17;45.60;;;30.83;;
27428;SDS011;14881;48.092;11.574;2024-03-08T02:53:47;50.80;;;33.08;;
27428;SDS011;14881;48.092;11.574;2024-03-08T02:56:19;50.30;;;32.83;;
27428;SDS011;14881;48.092;11.574;2024-03-08T02:58:51;52.63;;;33.15;;
27428;SDS011;14881;48.092;11.574;2024-03-08T03:01:20;50.80;;;32.40;;
27428;SDS011;14881;48.092;11.574;2024-03-08T03:03:50;50.30;;;32.60;;
27428;SDS011;14881;48.092;11.574;2024-03-08T03:06:18;49.70;;;32.60;;
27428;SDS011;14881;48.092;11.574;2024-03-08T03:08:47;56.97;;;33.25;;
27428;SDS011;14881;48.092;11.574;2024-03-08T03:11:17;56.40;;;34.83;;
27428;SDS011;14881;48.092;11.574;2024-03-08T03:13:47;52.40;;;32.78;;
27428;SDS011;14881;48.092;11.574;2024-03-08T03:16:16;56.10;;;34.00;;
27428;SDS011;14881;48.092;11.574;2024-03-08T03:18:46;54.72;;;33.28;;
27428;SDS011;14881;48.092;11.574;2024-03-08T03:21:14;52.53;;;33.35;;
27428;SDS011;14881;48.092;11.574;2024-03-08T03:23:43;54.08;;;33.30;;
27428;SDS011;14881;48.092;11.574;2024-03-08T03:26:11;53.38;;;33.00;;
27428;SDS011;14881;48.092;11.574;2024-03-08T03:28:39;52.10;;;32.85;;
27428;SDS011;14881;48.092;11.574;2024-03-08T03:31:08;52.20;;;32.42;;
27428;SDS011;14881;48.092;11.574;2024-03-08T03:33:40;53.60;;;32.70;;
27428;SDS011;14881;48.092;11.574;2024-03-08T03:36:08;53.47;;;32.97;;
27428;SDS011;14881;48.092;11.574;2024-03-08T03:38:37;52.22;;;32.80;;
27428;SDS011;14881;48.092;11.574;2024-03-08T03:41:04;56.33;;;33.80;;
27428;SDS011;14881;48.092;11.574;2024-03-08T03:43:37;55.90;;;33.15;;
27428;SDS011;14881;48.092;11.574;2024-03-08T03:46:05;50.70;;;32.35;;
27428;SDS011;14881;48.092;11.574;2024-03-08T03:48:35;53.47;;;33.75;;
27428;SDS011;14881;48.092;11.574;2024-03-08T03:51:03;56.42;;;34.78;;
27428;SDS011;14881;48.092;11.574;2024-03-08T03:53:31;55.33;;;34.95;;
27428;SDS011;14881;48.092;11.574;2024-03-08T03:55:59;57.20;;;36.97;;
27428;SDS011;14881;48.092;11.574;2024-03-08T03:58:27;57.25;;;36.47;;
27428;SDS011;14881;48.092;11.574;2024-03-08T04:00:57;59.75;;;35.33;;
27428;SDS011;14881;48.092;11.574;2024-03-08T04:03:27;60.08;;;37.35;;
27428;SDS011;14881;48.092;11.574;2024-03-08T04:05:56;58.75;;;37.25;;
27428;SDS011;14881;48.092;11.574;2024-03-08T04:08:24;63.17;;;37.58;;
27428;SDS011;14881;48.092;11.574;2024-03-08T04:10:52;58.55;;;36.50;;
27428;SDS011;14881;48.092;11.574;2024-03-08T04:13:20;62.08;;;36.42;;
27428;SDS011;14881;48.092;11.574;2024-03-08T04:15:47;60.80;;;38.40;;
27428;SDS011;14881;48.092;11.574;2024-03-08T04:18:15;58.75;;;36.50;;
27428;SDS011;14881;48.092;11.574;2024-03-08T04:20:44;62.55;;;38.35;;
27428;SDS011;14881;48.092;11.574;2024-03-08T04:23:14;63.42;;;39.22;;
27428;SDS011;14881;48.092;11.574;2024-03-08T04:25:43;64.35;;;38.17;;
27428;SDS011;14881;48.092;11.574;2024-03-08T04:28:11;67.93;;;40.17;;
27428;SDS011;14881;48.092;11.574;2024-03-08T04:30:39;67.07;;;40.58;;
27428;SDS011;14881;48.092;11.574;2024-03-08T04:33:07;66.47;;;39.28;;
27428;SDS011;14881;48.092;11.574;2024-03-08T04:35:36;66.63;;;39.75;;
27428;SDS011;14881;48.092;11.574;2024-03-08T04:38:04;67.57;;;40.33;;
27428;SDS011;14881;48.092;11.574;2024-03-08T04:40:34;67.28;;;40.05;;
27428;SDS011;14881;48.092;11.574;2024-03-08T04:43:01;72.13;;;40.22;;
27428;SDS011;14881;48.092;11.574;2024-03-08T04:45:30;65.72;;;39.75;;
27428;SDS011;14881;48.092;11.574;2024-03-08T04:47:58;65.82;;;40.95;;
27428;SDS011;14881;48.092;11.574;2024-03-08T04:50:28;65.72;;;39.60;;
27428;SDS011;14881;48.092;11.574;2024-03-08T04:52:56;70.75;;;41.97;;
27428;SDS011;14881;48.092;11.574;2024-03-08T04:55:24;67.22;;;41.20;;
27428;SDS011;14881;48.092;11.574;2024-03-08T04:57:53;69.85;;;43.47;;
27428;SDS011;14881;48.092;11.574;2024-03-08T05:00:21;67.95;;;41.67;;
27428;SDS011;14881;48.092;11.574;2024-03-08T05:02:49;73.97;;;42.00;;
27428;SDS011;14881;48.092;11.574;2024-03-08T05:05:19;76.38;;;43.78;;
27428;SDS011;14881;48.092;11.574;2024-03-08T05:07:49;71.95;;;42.67;;
27428;SDS011;14881;48.092;11.574;2024-03-08T05:10:17;69.93;;;42.50;;
27428;SDS011;14881;48.092;11.574;2024-03-08T05:12:44;69.85;;;42.35;;
27428;SDS011;14881;48.092;11.574;2024-03-08T05:15:14;74.28;;;43.58;;
27428;SDS011;14881;48.092;11.574;2024-03-08T05:17:42;67.20;;;41.10;;
27428;SDS011;14881;48.092;11.574;2024-03-08T05:20:11;71.38;;;41.10;;
27428;SDS011;14881;48.092;11.574;2024-03-08T05:22:40;69.57;;;40.70;;
27428;SDS011;14881;48.092;11.574;2024-03-08T05:25:08;67.75;;;41.80;;
27428;SDS011;14881;48.092;11.574;2024-03-08T05:27:36;68.07;;;41.67;;
27428;SDS011;14881;48.092;11.574;2024-03-08T05:30:05;71.25;;;42.25;;
27428;SDS011;14881;48.092;11.574;2024-03-08T05:32:34;71.82;;;43.22;;
27428;SDS011;14881;48.092;11.574;2024-03-08T05:35:01;71.78;;;42.58;;
27428;SDS011;14881;48.092;11.574;2024-03-08T05:37:33;68.20;;;42.13;;
27428;SDS011;14881;48.092;11.574;2024-03-08T05:40:01;72.00;;;42.83;;
27428;SDS011;14881;48.092;11.574;2024-03-08T05:42:29;68.57;;;41.30;;
27428;SDS011;14881;48.092;11.574;2024-03-08T05:44:57;69.10;;;40.63;;
27428;SDS011;14881;48.092;11.574;2024-03-08T05:47:26;66.80;;;40.90;;
27428;SDS011;14881;48.092;11.574;2024-03-08T05:49:58;66.85;;;41.63;;
27428;SDS011;14881;48.092;11.574;2024-03-08T05:52:25;64.78;;;40.75;;
27428;SDS011;14881;48.092;11.574;2024-03-08T05:54:53;68.45;;;40.63;;
27428;SDS011;14881;48.092;11.574;2024-03-08T05:57:21;64.60;;;40.17;;
27428;SDS011;14881;48.092;11.574;2024-03-08T05:59:49;65.70;;;38.75;;
27428;SDS011;14881;48.092;11.574;2024-03-08T06:02:17;64.88;;;39.53;;
27428;SDS011;14881;48.092;11.574;2024-03-08T06:04:45;66.22;;;38.05;;
27428;SDS011;14881;48.092;11.574;2024-03-08T06:07:15;67.03;;;40.25;;
27428;SDS011;14881;48.092;11.574;2024-03-08T06:09:44;65.35;;;41.05;;
27428;SDS011;14881;48.092;11.574;2024-03-08T06:12:12;59.42;;;38.60;;
27428;SDS011;14881;48.092;11.574;2024-03-08T06:14:45;57.17;;;36.83;;
27428;SDS011;14881;48.092;11.574;2024-03-08T06:17:12;55.78;;;35.25;;
27428;SDS011;14881;48.092;11.574;2024-03-08T06:19:40;55.92;;;36.42;;
27428;SDS011;14881;48.092;11.574;2024-03-08T06:22:08;61.08;;;38.13;;
27428;SDS011;14881;48.092;11.574;2024-03-08T06:24:38;63.33;;;38.28;;
27428;SDS011;14881;48.092;11.574;2024-03-08T06:27:06;57.88;;;36.70;;
27428;SDS011;14881;48.092;11.574;2024-03-08T06:29:37;59.70;;;34.55;;
27428;SDS011;14881;48.092;11.574;2024-03-08T06:32:06;52.83;;;35.38;;
27428;SDS011;14881;48.092;11.574;2024-03-08T06:34:34;54.42;;;34.33;;
27428;SDS011;14881;48.092;11.574;2024-03-08T06:37:01;54.92;;;35.00;;
27428;SDS011;14881;48.092;11.574;2024-03-08T06:39:29;51.00;;;33.03;;
27428;SDS011;14881;48.092;11.574;2024-03-08T06:41:59;51.78;;;34.72;;
27428;SDS011;14881;48.092;11.574;2024-03-08T06:44:27;54.97;;;34.95;;
27428;SDS011;14881;48.092;11.574;2024-03-08T06:46:55;55.47;;;34.60;;
27428;SDS011;14881;48.092;11.574;2024-03-08T06:49:26;47.80;;;32.72;;
27428;SDS011;14881;48.092;11.574;2024-03-08T06:51:55;50.72;;;33.00;;
27428;SDS011;14881;48.092;11.574;2024-03-08T06:54:23;51.78;;;34.00;;
27428;SDS011;14881;48.092;11.574;2024-03-08T06:56:51;51.05;;;32.67;;
27428;SDS011;14881;48.092;11.574;2024-03-08T06:59:20;53.78;;;32.47;;
27428;SDS011;14881;48.092;11.574;2024-03-08T07:01:48;49.65;;;32.92;;
27428;SDS011;14881;48.092;11.574;2024-03-08T07:04:16;47.13;;;31.42;;
27428;SDS011;14881;48.092;11.574;2024-03-08T07:06:46;49.97;;;31.73;;
27428;SDS011;14881;48.092;11.574;2024-03-08T07:09:16;49.92;;;31.63;;
27428;SDS011;14881;48.092;11.574;2024-03-08T07:11:44;47.80;;;32.28;;
27428;SDS011;14881;48.092;11.574;2024-03-08T07:14:13;46.20;;;29.80;;
27428;SDS011;14881;48.092;11.574;2024-03-08T07:16:43;44.38;;;30.33;;
27428;SDS011;14881;48.092;11.574;2024-03-08T07:19:11;47.10;;;32.17;;
27428;SDS011;14881;48.092;11.574;2024-03-08T07:21:39;47.15;;;31.02;;
27428;SDS011;14881;48.092;11.574;2024-03-08T07:24:07;47.85;;;31.73;;
27428;SDS011;14881;48.092;11.574;2024-03-08T07:26:50;48.63;;;31.27;;
27428;SDS011;14881;48.092;11.574;2024-03-08T07:29:18;47.88;;;30.70;;
27428;SDS011;14881;48.092;11.574;2024-03-08T07:31:48;44.28;;;29.65;;
27428;SDS011;14881;48.092;11.574;2024-03-08T07:34:24;44.95;;;30.77;;
27428;SDS011;14881;48.092;11.574;2024-03-08T07:36:52;50.60;;;30.58;;
27428;SDS011;14881;48.092;11.574;2024-03-08T07:39:20;45.40;;;30.00;;
27428;SDS011;14881;48.092;11.574;2024-03-08T07:41:50;47.20;;;31.20;;
27428;SDS011;14881;48.092;11.574;2024-03-08T07:44:19;48.70;;;30.13;;
27428;SDS011;14881;48.092;11.574;2024-03-08T07:46:48;48.90;;;30.50;;
27428;SDS011;14881;48.092;11.574;2024-03-08T07:49:17;47.20;;;30.45;;
27428;SDS011;14881;48.092;11.574;2024-03-08T07:51:45;45.40;;;29.13;;
27428;SDS011;14881;48.092;11.574;2024-03-08T07:54:13;46.85;;;30.42;;
27428;SDS011;14881;48.092;11.574;2024-03-08T07:56:41;43.75;;;29.50;;
27428;SDS011;14881;48.092;11.574;2024-03-08T07:59:09;43.63;;;29.65;;
27428;SDS011;14881;48.092;11.574;2024-03-08T08:01:38;47.20;;;28.92;;
27428;SDS011;14881;48.092;11.574;2024-03-08T08:04:07;50.25;;;30.83;;
27428;SDS011;14881;48.092;11.574;2024-03-08T08:06:38;44.72;;;30.40;;
27428;SDS011;14881;48.092;11.574;2024-03-08T08:09:07;44.25;;;29.33;;
27428;SDS011;14881;48.092;11.574;2024-03-08T08:11:40;44.17;;;29.88;;
27428;SDS011;14881;48.092;11.574;2024-03-08T08:14:09;45.40;;;29.02;;
27428;SDS011;14881;48.092;11.574;2024-03-08T08:16:38;42.72;;;28.60;;
27428;SDS011;14881;48.092;11.574;2024-03-08T08:19:09;45.75;;;29.15;;
27428;SDS011;14881;48.092;11.574;2024-03-08T08:21:40;43.95;;;27.77;;
27428;SDS011;14881;48.092;11.574;2024-03-08T08:24:08;42.53;;;28.15;;
27428;SDS011;14881;48.092;11.574;2024-03-08T08:26:37;43.58;;;27.75;;
27428;SDS011;14881;48.092;11.574;2024-03-08T08:29:06;43.13;;;27.83;;
27428;SDS011;14881;48.092;11.574;2024-03-08T08:31:34;40.38;;;27.77;;
27428;SDS011;14881;48.092;11.574;2024-03-08T08:34:02;39.97;;;27.00;;
27428;SDS011;14881;48.092;11.574;2024-03-08T08:36:31;41.80;;;28.83;;
27428;SDS011;14881;48.092;11.574;2024-03-08T08:38:58;41.97;;;27.60;;
27428;SDS011;14881;48.092;11.574;2024-03-08T08:41:27;40.03;;;26.45;;
27428;SDS011;14881;48.092;11.574;2024-03-08T08:43:58;38.08;;;26.27;;
27428;SDS011;14881;48.092;11.574;2024-03-08T08:46:41;39.35;;;25.85;;
27428;SDS011;14881;48.092;11.574;2024-03-08T08:49:09;42.45;;;25.45;;
27428;SDS011;14881;48.092;11.574;2024-03-08T08:51:38;41.00;;;26.67;;
27428;SDS011;14881;48.092;11.574;2024-03-08T08:54:06;40.25;;;24.77;;
27428;SDS011;14881;48.092;11.574;2024-03-08T08:56:38;37.80;;;24.20;;
27428;SDS011;14881;48.092;11.574;2024-03-08T08:59:06;33.05;;;22.92;;
27428;SDS011;14881;48.092;11.574;2024-03-08T09:01:34;36.45;;;22.92;;
27428;SDS011;14881;48.092;11.574;2024-03-08T09:04:04;33.78;;;22.35;;
27428;SDS011;14881;48.092;11.574;2024-03-08T09:06:33;36.47;;;23.00;;
27428;SDS011;14881;48.092;11.574;2024-03-08T09:09:03;37.80;;;23.95;;
27428;SDS011;14881;48.092;11.574;2024-03-08T09:11:32;35.80;;;22.13;;
27428;SDS011;14881;48.092;11.574;2024-03-08T09:14:00;36.22;;;24.20;;
27428;SDS011;14881;48.092;11.574;2024-03-08T09:16:28;36.65;;;23.85;;
27428;SDS011;14881;48.092;11.574;2024-03-08T09:18:57;35.10;;;23.05;;
27428;SDS011;14881;48.092;11.574;2024-03-08T09:21:25;38.80;;;23.63;;
27428;SDS011;14881;48.092;11.574;2024-03-08T09:23:53;35.75;;;22.35;;
27428;SDS011;14881;48.092;11.574;2024-03-08T09:26:22;33.78;;;22.33;;
27428;SDS011;14881;48.092;11.574;2024-03-08T09:28:55;34.33;;;22.25;;
27428;SDS011;14881;48.092;11.574;2024-03-08T09:31:23;33.85;;;21.60;;
27428;SDS011;14881;48.092;11.574;2024-03-08T09:33:51;35.05;;;22.77;;
27428;SDS011;14881;48.092;11.574;2024-03-08T09:36:19;32.00;;;21.25;;
27428;SDS011;14881;48.092;11.574;2024-03-08T09:38:47;31.95;;;20.77;;
27428;SDS011;14881;48.092;11.574;2024-03-08T09:41:16;31.73;;;21.70;;
27428;SDS011;14881;48.092;11.574;2024-03-08T09:43:47;33.10;;;21.30;;
27428;SDS011;14881;48.092;11.574;2024-03-08T09:46:16;35.47;;;21.13;;
27428;SDS011;14881;48.092;11.574;2024-03-08T09:48:46;32.70;;;20.90;;
27428;SDS011;14881;48.092;11.574;2024-03-08T09:51:14;33.67;;;20.55;;
27428;SDS011;14881;48.092;11.574;2024-03-08T09:53:42;31.65;;;20.27;;
27428;SDS011;14881;48.092;11.574;2024-03-08T09:56:10;30.83;;;20.20;;
27428;SDS011;14881;48.092;11.574;2024-03-08T09:58:39;31.02;;;20.02;;
27428;SDS011;14881;48.092;11.574;2024-03-08T10:01:25;31.58;;;20.10;;
27428;SDS011;14881;48.092;11.574;2024-03-08T10:03:53;31.75;;;19.98;;
27428;SDS011;14881;48.092;11.574;2024-03-08T10:06:22;31.17;;;20.02;;
27428;SDS011;14881;48.092;11.574;2024-03-08T10:08:52;30.65;;;19.33;;
27428;SDS011;14881;48.092;11.574;2024-03-08T10:11:20;30.25;;;19.23;;
27428;SDS011;14881;48.092;11.574;2024-03-08T10:13:48;33.03;;;19.98;;
27428;SDS011;14881;48.092;11.574;2024-03-08T10:16:17;30.45;;;19.45;;
27428;SDS011;14881;48.092;11.574;2024-03-08T10:18:46;30.80;;;19.80;;
27428;SDS011;14881;48.092;11.574;2024-03-08T10:21:14;30.60;;;20.60;;
27428;SDS011;14881;48.092;11.574;2024-03-08T10:23:43;31.60;;;20.40;;
27428;SDS011;14881;48.092;11.574;2024-03-08T10:26:12;28.85;;;19.45;;
27428;SDS011;14881;48.092;11.574;2024-03-08T10:28:42;30.52;;;19.38;;
27428;SDS011;14881;48.092;11.574;2024-03-08T10:31:10;29.05;;;19.63;;
27428;SDS011;14881;48.092;11.574;2024-03-08T10:33:42;28.85;;;20.20;;
27428;SDS011;14881;48.092;11.574;2024-03-08T10:36:12;30.65;;;19.63;;
27428;SDS011;14881;48.092;11.574;2024-03-08T10:38:41;31.17;;;19.27;;
27428;SDS011;14881;48.092;11.574;2024-03-08T10:41:14;28.83;;;18.92;;
27428;SDS011;14881;48.092;11.574;2024-03-08T10:43:50;27.40;;;18.67;;
27428;SDS011;14881;48.092;11.574;2024-03-08T10:46:35;29.80;;;19.52;;
27428;SDS011;14881;48.092;11.574;2024-03-08T10:49:16;27.67;;;19.75;;
27428;SDS011;14881;48.092;11.574;2024-03-08T10:51:46;28.45;;;18.35;;
27428;SDS011;14881;48.092;11.574;2024-03-08T10:54:18;26.27;;;17.95;;
27428;SDS011;14881;48.092;11.574;2024-03-08T10:56:47;25.70;;;18.60;;
27428;SDS011;14881;48.092;11.574;2024-03-08T10:59:17;25.83;;;18.13;;
27428;SDS011;14881;48.092;11.574;2024-03-08T11:01:46;27.02;;;17.92;;
27428;SDS011;14881;48.092;11.574;2024-03-08T11:04:15;25.00;;;18.15;;
27428;SDS011;14881;48.092;11.574;2024-03-08T11:06:47;27.13;;;18.52;;
27428;SDS011;14881;48.092;11.574;2024-03-08T11:09:30;25.13;;;17.83;;
27428;SDS011;14881;48.092;11.574;2024-03-08T11:14:46;26.80;;;17.75;;
27428;SDS011;14881;48.092;11.574;2024-03-08T11:17:20;24.63;;;16.48;;
27428;SDS011;14881;48.092;11.574;2024-03-08T11:19:49;22.70;;;16.00;;
27428;SDS011;14881;48.092;11.574;2024-03-08T11:22:21;23.25;;;17.35;;
27428;SDS011;14881;48.092;11.574;2024-03-08T11:24:51;23.75;;;16.60;;
27428;SDS011;14881;48.092;11.574;2024-03-08T11:27:19;22.60;;;16.77;;
27428;SDS011;14881;48.092;11.574;2024-03-08T11:29:59;20.95;;;15.80;;
27428;SDS011;14881;48.092;11.574;2024-03-08T11:32:37;20.42;;;15.73;;
27428;SDS011;14881;48.092;11.574;2024-03-08T11:35:06;20.30;;;15.57;;
27428;SDS011;14881;48.092;11.574;2024-03-08T11:37:37;21.05;;;15.23;;
27428;SDS011;14881;48.092;11.574;2024-03-08T11:40:11;21.80;;;15.68;;
27428;SDS011;14881;48.092;11.574;2024-03-08T11:42:44;21.05;;;15.65;;
27428;SDS011;14881;48.092;11.574;2024-03-08T11:45:14;21.70;;;15.43;;
27428;SDS011;14881;48.092;11.574;2024-03-08T11:47:44;21.60;;;14.93;;
27428;SDS011;14881;48.092;11.574;2024-03-08T11:50:13;24.80;;;16.55;;
27428;SDS011;14881;48.092;11.574;2024-03-08T11:52:42;22.42;;;16.88;;
27428;SDS011;14881;48.092;11.574;2024-03-08T11:55:11;22.25;;;17.27;;
27428;SDS011;14881;48.092;11.574;2024-03-08T11:57:40;22.85;;;16.50;;
27428;SDS011;14881;48.092;11.574;2024-03-08T12:00:14;23.20;;;16.92;;
27428;SDS011;14881;48.092;11.574;2024-03-08T12:03:00;25.40;;;16.95;;
27428;SDS011;14881;48.092;11.574;2024-03-08T12:05:29;22.52;;;17.85;;
27428;SDS011;14881;48.092;11.574;2024-03-08T12:07:59;22.33;;;15.63;;
27428;SDS011;14881;48.092;11.574;2024-03-08T12:10:27;25.40;;;18.00;;
27428;SDS011;14881;48.092;11.574;2024-03-08T12:12:57;23.23;;;16.80;;
27428;SDS011;14881;48.092;11.574;2024-03-08T12:15:27;24.65;;;18.33;;
27428;SDS011;14881;48.092;11.574;2024-03-08T12:17:56;23.50;;;17.25;;
27428;SDS011;14881;48.092;11.574;2024-03-08T12:20:25;81.75;;;51.80;;
27428;SDS011;14881;48.092;11.574;2024-03-08T12:22:56;24.50;;;16.95;;
27428;SDS011;14881;48.092;11.574;2024-03-08T12:25:29;24.58;;;18.40;;
27428;SDS011;14881;48.092;11.574;2024-03-08T12:28:06;25.75;;;18.00;;
27428;SDS011;14881;48.092;11.574;2024-03-08T12:30:37;22.65;;;17.67;;
27428;SDS011;14881;48.092;11.574;2024-03-08T12:33:13;22.65;;;16.77;;
27428;SDS011;14881;48.092;11.574;2024-03-08T12:35:41;21.48;;;16.98;;
27428;SDS011;14881;48.092;11.574;2024-03-08T12:38:20;22.73;;;16.27;;
27428;SDS011;14881;48.092;11.574;2024-03-08T12:40:56;21.73;;;15.85;;
27428;SDS011;14881;48.092;11.574;2024-03-08T12:43:26;20.90;;;15.73;;
27428;SDS011;14881;48.092;11.574;2024-03-08T12:45:58;23.00;;;15.88;;
27428;SDS011;14881;48.092;11.574;2024-03-08T12:48:26;22.13;;;16.98;;
27428;SDS011;14881;48.092;11.574;2024-03-08T12:50:54;25.60;;;17.85;;
27428;SDS011;14881;48.092;11.574;2024-03-08T12:53:24;20.73;;;15.48;;
27428;SDS011;14881;48.092;11.574;2024-03-08T12:55:56;22.17;;;15.77;;
27428;SDS011;14881;48.092;11.574;2024-03-08T12:58:24;22.98;;;17.27;;
27428;SDS011;14881;48.092;11.574;2024-03-08T13:00:53;24.25;;;18.75;;
27428;SDS011;14881;48.092;11.574;2024-03-08T13:03:21;23.02;;;17.40;;
27428;SDS011;14881;48.092;11.574;2024-03-08T13:05:51;22.13;;;16.45;;
27428;SDS011;14881;48.092;11.574;2024-03-08T13:08:19;22.05;;;16.65;;
27428;SDS011;14881;48.092;11.574;2024-03-08T13:10:48;21.92;;;16.15;;
27428;SDS011;14881;48.092;11.574;2024-03-08T13:13:18;22.77;;;16.63;;
27428;SDS011;14881;48.092;11.574;2024-03-08T13:15:46;18.83;;;15.07;;
27428;SDS011;14881;48.092;11.574;2024-03-08T13:18:15;21.60;;;14.95;;
27428;SDS011;14881;48.092;11.574;2024-03-08T13:20:44;20.75;;;15.55;;
27428;SDS011;14881;48.092;11.574;2024-03-08T13:23:15;20.45;;;16.30;;
27428;SDS011;14881;48.092;11.574;2024-03-08T13:25:44;20.77;;;16.25;;
27428;SDS011;14881;48.092;11.574;2024-03-08T13:28:14;22.20;;;16.77;;
27428;SDS011;14881;48.092;11.574;2024-03-08T13:30:44;21.42;;;16.02;;
27428;SDS011;14881;48.092;11.574;2024-03-08T13:33:12;21.48;;;15.85;;
27428;SDS011;14881;48.092;11.574;2024-03-08T13:35:41;22.02;;;15.60;;
27428;SDS011;14881;48.092;11.574;2024-03-08T13:38:09;21.58;;;15.82;;
27428;SDS011;14881;48.092;11.574;2024-03-08T13:40:39;21.00;;;15.55;;
27428;SDS011;14881;48.092;11.574;2024-03-08T13:43:07;22.65;;;15.60;;
27428;SDS011;14881;48.092;11.574;2024-03-08T13:45:35;21.48;;;15.48;;
27428;SDS011;14881;48.092;11.574;2024-03-08T13:48:06;18.05;;;14.32;;
27428;SDS011;14881;48.092;11.574;2024-03-08T13:50:39;21.20;;;14.98;;
27428;SDS011;14881;48.092;11.574;2024-03-08T13:53:07;23.27;;;15.27;;
27428;SDS011;14881;48.092;11.574;2024-03-08T13:55:36;23.02;;;14.60;;
27428;SDS011;14881;48.092;11.574;2024-03-08T13:58:04;18.77;;;13.55;;
27428;SDS011;14881;48.092;11.574;2024-03-08T14:00:35;22.52;;;14.80;;
27428;SDS011;14881;48.092;11.574;2024-03-08T14:03:03;20.17;;;15.35;;
27428;SDS011;14881;48.092;11.574;2024-03-08T14:05:34;20.13;;;15.07;;
27428;SDS011;14881;48.092;11.574;2024-03-08T14:08:02;25.25;;;15.70;;
27428;SDS011;14881;48.092;11.574;2024-03-08T14:10:33;21.55;;;15.93;;
27428;SDS011;14881;48.092;11.574;2024-03-08T14:13:03;19.98;;;14.75;;
27428;SDS011;14881;48.092;11.574;2024-03-08T14:15:33;20.65;;;14.20;;
27428;SDS011;14881;48.092;11.574;2024-03-08T14:18:02;20.38;;;14.82;;
27428;SDS011;14881;48.092;11.574;2024-03-08T14:20:35;21.77;;;15.98;;
27428;SDS011;14881;48.092;11.574;2024-03-08T14:23:02;20.92;;;15.95;;